Time;durP1;ratioP1;P1;durP2;ratioP2;P2;SDS_P1;SDS_P2;PMS_P1;PMS_P2;Temp;Humidity;BMP_temperature;BMP_pressure;BME280_temperature;BME280_humidity;BME280_pressure;Samples;Min_cycle;Max_cycle;Signal;HPM_P1;HPM_P2
2022/06/30 00:00:19;;;;;;;8.18;4.65;;;;;;;20.30;68.54;100344.26;3754301;77;99346;-80
2022/06/30 00:05:20;;;;;;;8.43;4.67;;;;;;;20.27;69.02;100360.54;3745646;77;99145;-80
2022/06/30 00:10:22;;;;;;;6.92;3.90;;;;;;;20.32;69.03;100376.77;3748964;77;98557;-79
2022/06/30 00:15:23;;;;;;;7.53;4.72;;;;;;;20.37;69.15;100392.95;3754525;77;32422;-80
2022/06/30 00:20:24;;;;;;;7.53;4.58;;;;;;;20.42;69.57;100391.02;3757008;77;98580;-79
2022/06/30 00:25:25;;;;;;;8.63;4.45;;;;;;;20.45;69.90;100408.31;3748274;77;98904;-80
2022/06/30 00:30:26;;;;;;;7.25;4.45;;;;;;;20.50;70.07;100438.52;3745141;76;99134;-79
2022/06/30 00:35:28;;;;;;;7.92;4.40;;;;;;;20.56;70.14;100444.53;3748062;77;99122;-79
2022/06/30 00:40:29;;;;;;;8.20;4.73;;;;;;;20.62;69.76;100456.73;3747390;77;99204;-79
2022/06/30 00:45:30;;;;;;;9.10;5.03;;;;;;;20.67;70.24;100469.38;3747167;77;30606;-79
2022/06/30 00:50:31;;;;;;;8.95;5.20;;;;;;;20.72;71.06;100477.22;3741911;77;99169;-79
2022/06/30 00:55:34;;;;;;;8.73;4.72;;;;;;;20.78;71.31;100477.63;3747905;76;98735;-80
2022/06/30 01:00:41;;;;;;;11.90;6.58;;;;;;;20.81;71.71;100468.97;3792870;75;99279;-81
2022/06/30 01:05:43;;;;;;;13.30;8.40;;;;;;;20.82;71.99;100502.70;3779632;75;99049;-82
2022/06/30 01:16:04;;;;;;;18.77;9.28;;;;;;;20.49;76.13;100519.44;3801810;76;33488;-84
2022/06/30 01:21:05;;;;;;;12.93;7.30;;;;;;;20.42;78.42;100532.20;3793777;76;98601;-86
2022/06/30 01:26:06;;;;;;;26.40;8.88;;;;;;;20.39;77.38;100516.32;3807001;76;99226;-83
2022/06/30 01:31:07;;;;;;;15.32;7.58;;;;;;;20.39;78.00;100498.92;3772459;75;99103;-79
2022/06/30 01:36:08;;;;;;;12.88;7.97;;;;;;;20.43;78.13;100490.45;3792883;76;98525;-80
2022/06/30 01:41:09;;;;;;;12.90;6.90;;;;;;;20.45;78.50;100478.20;3793080;76;98502;-80
2022/06/30 01:46:10;;;;;;;12.36;7.30;;;;;;;20.43;78.42;100459.07;3798058;76;31734;-80
2022/06/30 01:51:11;;;;;;;13.20;8.43;;;;;;;20.45;78.65;100445.45;3793220;75;99294;-81
2022/06/30 01:56:12;;;;;;;12.98;8.23;;;;;;;20.48;79.04;100416.59;3797603;76;98895;-82
2022/06/30 02:01:13;;;;;;;13.35;9.30;;;;;;;20.44;80.38;100392.77;3787460;76;98951;-82
2022/06/30 02:06:16;;;;;;;16.60;9.28;;;;;;;20.41;81.92;100380.47;3773404;76;99423;-81
2022/06/30 02:11:17;;;;;;;12.82;8.20;;;;;;;20.26;84.29;100344.37;3794457;75;99426;-83
2022/06/30 02:16:18;;;;;;;14.55;10.75;;;;;;;20.11;86.08;100304.72;3806432;76;30954;-83
2022/06/30 02:21:19;;;;;;;18.52;10.48;;;;;;;20.02;88.22;100284.99;3784507;76;99054;-85
2022/06/30 02:26:21;;;;;;;16.07;11.28;;;;;;;19.98;87.94;100261.95;3790197;76;99341;-85
2022/06/30 02:31:22;;;;;;;18.37;12.63;;;;;;;19.95;89.45;100258.67;3798447;76;98885;-86
2022/06/30 02:36:23;;;;;;;14.70;10.65;;;;;;;19.85;90.52;100294.08;3791364;76;99134;-86
2022/06/30 02:41:24;;;;;;;18.67;12.37;;;;;;;19.86;90.13;100324.97;3777678;76;99247;-87
2022/06/30 02:46:26;;;;;;;14.03;11.15;;;;;;;19.90;89.54;100357.75;3800132;75;98228;-89
2022/06/30 02:51:27;;;;;;;13.58;10.48;;;;;;;19.94;89.28;100384.22;3794013;75;98354;-88
2022/06/30 02:56:28;;;;;;;14.73;10.45;;;;;;;19.98;89.29;100403.03;3772676;76;99428;-87
2022/06/30 03:01:29;;;;;;;15.85;11.03;;;;;;;20.00;89.94;100438.32;3765232;76;99083;-86
2022/06/30 03:06:32;;;;;;;18.85;11.45;;;;;;;19.93;91.28;100456.05;3761118;77;99420;-85
2022/06/30 03:11:33;;;;;;;14.53;11.43;;;;;;;19.96;91.58;100434.23;3784673;77;98795;-83
2022/06/30 03:16:34;;;;;;;16.50;12.30;;;;;;;19.92;92.84;100397.81;3763273;77;99225;-81
2022/06/30 03:21:35;;;;;;;14.15;11.88;;;;;;;19.87;93.82;100373.21;3771474;77;30804;-85
2022/06/30 03:26:37;;;;;;;16.73;11.27;;;;;;;19.76;95.63;100355.36;3764304;77;99458;-83
2022/06/30 03:31:38;;;;;;;14.87;10.95;;;;;;;19.72;97.65;100337.15;3777796;77;98296;-82
2022/06/30 03:36:39;;;;;;;15.40;11.10;;;;;;;19.68;98.06;100306.50;3767225;77;99532;-83
2022/06/30 03:41:40;;;;;;;15.40;12.45;;;;;;;19.68;98.97;100263.86;3769789;76;99084;-85
2022/06/30 03:46:41;;;;;;;14.05;11.85;;;;;;;19.63;100.00;100208.55;3768809;77;99561;-82
2022/06/30 03:51:42;;;;;;;14.98;11.65;;;;;;;19.59;100.00;100213.45;3782884;77;26439;-83
2022/06/30 03:56:43;;;;;;;14.70;12.23;;;;;;;19.63;100.00;100222.52;3768107;75;99346;-84
2022/06/30 04:01:45;;;;;;;14.60;11.80;;;;;;;19.66;100.00;100228.59;3752124;77;99329;-85
2022/06/30 04:06:46;;;;;;;22.07;13.20;;;;;;;19.66;100.00;100225.20;3749846;77;99766;-86
2022/06/30 04:11:47;;;;;;;17.40;13.47;;;;;;;19.66;100.00;100204.86;3740165;77;99348;-86
2022/06/30 04:16:48;;;;;;;17.90;14.43;;;;;;;19.68;100.00;100180.09;3748888;77;99603;-85
2022/06/30 04:21:50;;;;;;;16.30;14.10;;;;;;;19.61;100.00;100140.59;3759832;77;26215;-87
2022/06/30 04:26:51;;;;;;;16.40;14.57;;;;;;;19.60;100.00;100178.11;3744122;77;99568;-87
2022/06/30 04:37:12;;;;;;;17.95;15.43;;;;;;;19.68;100.00;100199.00;3744875;77;99335;-87
2022/06/30 04:42:13;;;;;;;19.30;16.17;;;;;;;19.73;100.00;100203.27;3751477;77;99944;-87
2022/06/30 04:47:14;;;;;;;19.55;17.40;;;;;;;19.77;100.00;100220.09;3753019;76;99389;-86
2022/06/30 04:52:15;;;;;;;20.10;17.10;;;;;;;19.86;100.00;100233.39;3765901;77;26100;-87
2022/06/30 04:57:16;;;;;;;21.50;16.27;;;;;;;19.92;100.00;100242.19;3743503;77;99373;-87
2022/06/30 05:02:17;;;;;;;19.17;15.10;;;;;;;19.95;100.00;100246.10;3751594;77;99170;-88
2022/06/30 05:07:18;;;;;;;17.63;14.63;;;;;;;20.00;100.00;100247.72;3748353;77;99260;-87
2022/06/30 05:12:19;;;;;;;22.60;17.50;;;;;;;20.03;100.00;100248.84;3760039;77;99409;-87
2022/06/30 05:17:21;;;;;;;17.23;15.43;;;;;;;20.08;100.00;100268.67;3749465;77;99748;-87
2022/06/30 05:22:22;;;;;;;17.57;15.47;;;;;;;20.15;99.73;100273.24;3754341;77;26409;-87
2022/06/30 05:27:24;;;;;;;16.47;14.73;;;;;;;20.23;99.77;100279.59;3749307;76;99241;-87
2022/06/30 05:32:25;;;;;;;17.90;12.87;;;;;;;20.33;99.30;100281.25;3756425;76;97999;-87
2022/06/30 05:37:26;;;;;;;19.60;16.17;;;;;;;20.41;99.64;100288.21;3747560;78;99466;-89
2022/06/30 05:42:27;;;;;;;17.10;14.00;;;;;;;20.55;99.78;100291.94;3754400;77;99157;-89
2022/06/30 05:47:29;;;;;;;17.20;12.80;;;;;;;20.76;99.90;100298.89;3751480;77;99533;-89
2022/06/30 05:52:29;;;;;;;14.80;11.13;;;;;;;20.81;99.16;100293.50;3755928;77;98254;-86
2022/06/30 05:57:31;;;;;;;15.40;12.70;;;;;;;20.83;98.46;100299.45;3750269;77;99041;-87
2022/06/30 06:02:32;;;;;;;15.10;12.70;;;;;;;20.93;98.01;100301.75;3781338;77;99035;-87
2022/06/30 06:07:33;;;;;;;15.17;12.13;;;;;;;21.15;98.44;100304.77;3770357;77;99084;-88
2022/06/30 06:12:34;;;;;;;14.40;12.22;;;;;;;21.36;98.51;100287.87;3780324;75;98817;-88
2022/06/30 06:17:47;;;;;;;15.28;12.37;;;;;;;21.66;97.78;100296.98;3771007;77;99135;-88
2022/06/30 06:22:48;;;;;;;16.57;13.03;;;;;;;21.93;97.03;100298.62;3774932;76;99490;-86
2022/06/30 06:33:10;;;;;;;15.93;11.15;;;;;;;22.27;95.37;100290.89;3766874;77;98757;-86
2022/06/30 06:38:11;;;;;;;13.68;11.00;;;;;;;22.53;94.91;100310.53;3770894;77;98926;-88
2022/06/30 06:43:12;;;;;;;18.42;11.28;;;;;;;22.70;94.11;100323.67;3771082;77;99128;-86
2022/06/30 06:48:13;;;;;;;14.13;11.35;;;;;;;22.89;93.16;100312.69;3768129;77;99140;-89
2022/06/30 06:53:14;;;;;;;15.23;11.40;;;;;;;22.98;92.04;100313.49;3777482;77;98837;-88
2022/06/30 06:58:15;;;;;;;16.67;11.50;;;;;;;23.08;91.42;100315.08;3771494;77;99142;-88
2022/06/30 07:03:16;;;;;;;17.52;12.03;;;;;;;23.19;90.87;100318.86;3802760;76;99288;-88
2022/06/30 07:08:17;;;;;;;13.40;9.98;;;;;;;23.50;90.52;100322.34;3790879;75;98974;-87
2022/06/30 07:13:18;;;;;;;17.10;12.00;;;;;;;23.87;90.13;100323.27;3793199;76;98222;-88
2022/06/30 07:18:20;;;;;;;16.07;12.28;;;;;;;24.19;89.20;100321.23;3786415;75;99547;-86
2022/06/30 07:23:21;;;;;;;14.00;11.50;;;;;;;24.55;87.60;100324.56;3786336;76;99126;-86
2022/06/30 07:28:22;;;;;;;13.25;10.35;;;;;;;24.82;86.83;100339.35;3786382;76;99364;-88
2022/06/30 07:33:23;;;;;;;14.47;10.15;;;;;;;25.14;85.87;100334.34;3799558;75;98796;-86
2022/06/30 07:38:24;;;;;;;12.78;9.50;;;;;;;25.41;84.34;100344.06;3784519;76;99498;-91
2022/06/30 07:43:25;;;;;;;13.15;9.53;;;;;;;25.73;83.30;100344.58;3787714;76;98943;-86
2022/06/30 07:48:26;;;;;;;15.00;10.45;;;;;;;26.02;82.50;100338.25;3782722;76;99052;-87
2022/06/30 07:53:27;;;;;;;13.32;9.23;;;;;;;26.38;81.29;100339.31;3792624;76;98309;-86
2022/06/30 07:58:28;;;;;;;13.05;8.05;;;;;;;26.73;79.59;100338.76;3776656;75;99114;-87
2022/06/30 08:03:31;;;;;;;11.22;7.62;;;;;;;27.07;78.65;100340.81;3760599;77;32214;-84
2022/06/30 08:08:33;;;;;;;13.08;7.80;;;;;;;27.43;78.03;100341.75;3754886;77;99306;-85
2022/06/30 08:13:35;;;;;;;10.80;7.83;;;;;;;27.59;76.70;100346.22;3771341;77;99419;-85
2022/06/30 08:18:36;;;;;;;10.78;7.62;;;;;;;27.86;75.87;100345.02;3763407;77;98708;-86
2022/06/30 08:23:39;;;;;;;10.90;6.70;;;;;;;27.88;74.17;100346.70;3764848;77;99431;-85
2022/06/30 08:28:41;;;;;;;11.15;7.12;;;;;;;28.14;74.00;100344.67;3749832;77;98810;-87
2022/06/30 08:33:42;;;;;;;10.88;7.15;;;;;;;28.48;72.60;100353.02;3774976;77;31704;-88
2022/06/30 08:38:43;;;;;;;10.80;7.12;;;;;;;28.86;71.59;100363.89;3760855;77;98745;-87
2022/06/30 08:43:45;;;;;;;14.00;7.45;;;;;;;29.11;70.02;100358.05;3772034;76;98921;-86
2022/06/30 08:48:47;;;;;;;11.45;8.13;;;;;;;29.15;69.97;100348.67;3747129;77;99052;-86
2022/06/30 08:54:00;;;;;;;10.82;7.95;;;;;;;29.49;67.97;100346.94;3755631;77;98985;-86
2022/06/30 08:59:04;;;;;;;10.00;8.17;;;;;;;29.77;68.15;100328.63;3755548;76;99486;-88
2022/06/30 09:04:07;;;;;;;14.83;8.63;;;;;;;30.07;67.19;100341.11;3790774;75;26404;-87
2022/06/30 09:09:08;;;;;;;10.85;6.90;;;;;;;30.40;66.20;100339.10;3785468;75;99121;-87
2022/06/30 09:14:09;;;;;;;11.73;8.28;;;;;;;30.67;65.79;100317.72;3801424;76;98792;-87
2022/06/30 09:19:10;;;;;;;13.50;9.95;;;;;;;31.17;64.55;100317.74;3787449;75;99007;-87
2022/06/30 09:24:22;;;;;;;12.98;9.25;;;;;;;31.53;62.72;100324.38;3802132;76;98628;-87
2022/06/30 09:29:23;;;;;;;12.68;8.38;;;;;;;31.72;61.86;100316.14;3792320;76;99171;-87
2022/06/30 09:34:24;;;;;;;13.43;8.50;;;;;;;31.56;60.41;100314.17;3803611;76;25528;-89
2022/06/30 09:39:25;;;;;;;15.43;9.23;;;;;;;31.39;61.28;100308.41;3791023;75;98628;-86
2022/06/30 09:44:27;;;;;;;11.68;8.28;;;;;;;31.31;59.98;100312.45;3794039;76;98861;-87
2022/06/30 09:49:42;;;;;;;11.85;8.15;;;;;;;31.26;60.33;100304.70;3789988;75;99383;-87
2022/06/30 09:55:06;;;;;;;10.50;7.85;;;;;;;31.20;59.54;100300.32;3795874;76;98644;-88
2022/06/30 10:00:12;;;;;;;11.55;8.15;;;;;;;31.06;60.02;100291.42;3792081;76;98961;-87
2022/06/30 10:05:16;;;;;;;11.12;8.95;;;;;;;30.85;60.20;100294.44;3748452;77;99509;-87
2022/06/30 10:10:17;;;;;;;12.37;9.63;;;;;;;30.63;59.18;100300.12;3751131;77;98887;-88
2022/06/30 10:15:22;;;;;;;16.50;9.78;;;;;;;30.37;59.99;100303.23;3744386;77;98917;-89
2022/06/30 10:20:26;;;;;;;10.32;8.33;;;;;;;30.29;59.71;100305.69;3721408;77;98947;-87
2022/06/30 10:25:27;;;;;;;12.53;10.28;;;;;;;30.14;59.62;100307.31;3736113;76;98703;-89
2022/06/30 10:30:42;;;;;;;13.88;9.55;;;;;;;30.14;59.80;100312.23;3736104;77;99478;-87
2022/06/30 10:35:52;;;;;;;11.97;9.55;;;;;;;30.05;60.08;100301.87;3718173;77;99380;-89
2022/06/30 10:41:12;;;;;;;14.03;9.73;;;;;;;30.09;60.20;100288.21;3731902;77;98973;-88
2022/06/30 10:46:13;;;;;;;11.48;8.78;;;;;;;30.26;60.13;100290.45;3753464;76;25907;-89
2022/06/30 10:51:14;;;;;;;12.80;9.98;;;;;;;30.13;59.77;100290.16;3671919;76;99147;-89
2022/06/30 10:56:15;;;;;;;14.28;10.35;;;;;;;30.09;60.23;100283.16;3584498;79;98483;-89
2022/06/30 11:01:17;;;;;;;12.13;9.03;;;;;;;30.26;60.15;100287.61;3569223;80;99232;-88
2022/06/30 11:06:18;;;;;;;12.28;9.65;;;;;;;30.42;60.21;100277.53;3632751;80;99023;-89
2022/06/30 11:11:28;;;;;;;11.60;8.93;;;;;;;30.45;60.23;100279.35;3608536;80;99291;-89
2022/06/30 11:16:37;;;;;;;15.18;10.43;;;;;;;30.58;60.32;100276.75;3680416;77;98179;-87
2022/06/30 11:21:45;;;;;;;13.72;10.65;;;;;;;30.95;59.90;100272.31;3758695;77;25917;-89
2022/06/30 11:32:08;;;;;;;18.40;11.85;;;;;;;30.91;58.99;100266.14;3769291;77;98979;-88
2022/06/30 11:37:09;;;;;;;13.15;10.53;;;;;;;31.15;58.96;100264.11;3756690;77;99492;-87
2022/06/30 11:42:11;;;;;;;13.65;10.63;;;;;;;31.43;58.87;100260.56;3757983;77;99180;-87
2022/06/30 11:47:17;;;;;;;13.85;10.20;;;;;;;31.77;59.29;100249.91;3761183;77;99426;-88
2022/06/30 11:52:41;;;;;;;15.25;11.45;;;;;;;32.40;57.95;100253.99;3750958;77;26365;-86
2022/06/30 11:57:44;;;;;;;14.35;10.53;;;;;;;32.77;56.49;100257.04;3758383;77;98894;-87
2022/06/30 12:02:47;;;;;;;13.03;10.60;;;;;;;33.22;54.21;100245.24;3780786;77;98640;-87
2022/06/30 12:07:49;;;;;;;13.25;10.70;;;;;;;33.47;54.46;100237.57;3770807;77;98992;-87
2022/06/30 12:12:50;;;;;;;12.80;11.40;;;;;;;33.81;53.26;100233.59;3793230;77;99463;-86
2022/06/30 12:17:52;;;;;;;14.30;10.45;;;;;;;33.92;52.99;100229.14;3774622;77;99102;-87
2022/06/30 12:22:54;;;;;;;13.55;10.82;;;;;;;34.12;51.94;100225.07;3772859;77;99383;-88
2022/06/30 12:27:56;;;;;;;14.43;11.35;;;;;;;34.21;50.64;100222.46;3770614;77;98933;-86
2022/06/30 12:33:01;;;;;;;13.83;11.12;;;;;;;34.29;49.86;100222.73;3774791;77;99004;-85
2022/06/30 12:38:22;;;;;;;14.75;11.93;;;;;;;34.58;50.44;100220.90;3769252;77;99422;-86
2022/06/30 12:43:23;;;;;;;15.18;12.03;;;;;;;34.77;49.07;100209.51;3786035;77;99533;-87
2022/06/30 12:48:53;;;;;;;15.78;12.07;;;;;;;34.71;48.66;100205.20;3790596;76;99257;-85
2022/06/30 12:54:14;;;;;;;14.33;11.48;;;;;;;34.87;48.39;100204.14;3795665;77;98424;-85
2022/06/30 12:59:18;;;;;;;14.05;11.90;;;;;;;34.85;47.71;100203.91;3775360;76;99020;-85
2022/06/30 13:04:23;;;;;;;15.23;12.28;;;;;;;34.94;48.11;100205.69;3777934;77;25638;-85
2022/06/30 13:09:34;;;;;;;13.72;12.15;;;;;;;35.03;48.51;100216.66;3755747;77;99241;-85
2022/06/30 13:14:40;;;;;;;13.20;11.45;;;;;;;34.94;47.54;100212.84;3749568;77;98118;-85
2022/06/30 13:19:44;;;;;;;12.78;11.25;;;;;;;34.91;47.59;100208.85;3743329;77;98929;-86
2022/06/30 13:24:46;;;;;;;14.93;10.93;;;;;;;34.13;47.75;100205.19;3704275;77;98811;-85
2022/06/30 13:29:50;;;;;;;14.63;11.73;;;;;;;34.25;48.68;100206.53;3736916;77;99148;-86
2022/06/30 13:34:53;;;;;;;13.28;11.88;;;;;;;34.17;47.37;100204.86;3752172;77;98738;-86
2022/06/30 13:39:58;;;;;;;18.13;13.23;;;;;;;34.19;48.02;100206.50;3730959;78;99045;-85
2022/06/30 13:45:00;;;;;;;14.00;12.60;;;;;;;33.99;47.32;100197.12;3740587;77;98586;-85
2022/06/30 13:50:03;;;;;;;15.25;12.70;;;;;;;34.13;48.20;100202.97;3735805;77;98290;-85
2022/06/30 13:55:07;;;;;;;14.13;12.65;;;;;;;34.28;48.41;100195.45;3774046;77;98956;-87
2022/06/30 14:00:10;;;;;;;;;;;;;;;34.50;47.44;100184.29;3739782;77;99210;-84
2022/06/30 14:05:12;;;;;;;18.82;13.15;;;;;;;34.08;46.07;100186.70;3777675;77;84304;-88
2022/06/30 14:10:14;;;;;;;15.72;12.15;;;;;;;33.76;47.34;100180.17;3733678;77;98563;-89
2022/06/30 14:15:15;;;;;;;12.80;11.50;;;;;;;33.54;47.50;100179.87;3778534;77;98875;-84
2022/06/30 14:20:16;;;;;;;15.93;12.60;;;;;;;33.29;47.74;100171.94;3785463;76;99099;-87
2022/06/30 14:25:17;;;;;;;14.63;12.03;;;;;;;33.20;47.27;100173.70;3796388;77;99055;-84
2022/06/30 14:30:19;;;;;;;14.10;12.47;;;;;;;33.13;47.93;100166.52;3753564;77;99539;-85
2022/06/30 14:35:21;;;;;;;13.65;10.95;;;;;;;32.92;47.95;100169.77;3764669;77;99435;-86
2022/06/30 14:40:25;;;;;;;12.75;11.22;;;;;;;32.83;48.64;100164.45;3782094;77;99441;-86
2022/06/30 14:45:32;;;;;;;14.47;11.65;;;;;;;32.82;48.17;100165.77;3777358;77;98326;-85
2022/06/30 14:50:30;;;;;;;13.72;12.30;;;;;;;32.57;47.96;100155.66;3762711;77;99043;-83
2022/06/30 14:55:31;;;;;;;14.05;10.58;;;;;;;32.56;48.28;100150.48;3764727;77;99126;-82
2022/06/30 15:00:35;;;;;;;13.13;9.30;;;;;;;32.41;48.22;100142.36;3771701;77;99189;-85
2022/06/30 15:05:35;;;;;;;13.38;11.12;;;;;;;32.59;48.53;100133.75;3743765;77;98908;-83
2022/06/30 15:10:37;;;;;;;12.40;10.00;;;;;;;32.38;47.99;100142.02;3740542;77;98996;-83
2022/06/30 15:15:38;;;;;;;12.98;9.55;;;;;;;32.36;48.38;100139.58;3743917;77;98825;-86
2022/06/30 15:20:39;;;;;;;13.00;9.58;;;;;;;32.28;47.52;100143.67;3749832;76;99314;-83
2022/06/30 15:25:41;;;;;;;10.82;8.03;;;;;;;32.13;47.97;100123.97;3747089;77;99363;-86
2022/06/30 15:30:42;;;;;;;11.08;8.63;;;;;;;32.07;47.14;100123.25;3740105;77;98938;-84
2022/06/30 15:35:44;;;;;;;13.32;8.28;;;;;;;31.74;47.40;100123.55;3757694;77;99121;-86
2022/06/30 15:40:45;;;;;;;12.50;8.88;;;;;;;31.50;47.55;100136.25;3738989;77;99040;-85
2022/06/30 15:45:47;;;;;;;10.93;7.67;;;;;;;31.18;47.73;100134.48;3746087;77;32171;-85
2022/06/30 15:50:48;;;;;;;11.90;9.18;;;;;;;30.92;48.29;100131.25;3744575;76;98911;-86
2022/06/30 15:55:49;;;;;;;12.25;8.50;;;;;;;30.80;49.45;100137.50;3739501;77;98988;-83
2022/06/30 16:00:51;;;;;;;11.83;9.10;;;;;;;30.56;49.93;100136.64;3745373;77;99093;-83
2022/06/30 16:05:52;;;;;;;10.98;8.00;;;;;;;30.39;50.62;100142.23;3770318;77;99142;-85
2022/06/30 16:10:54;;;;;;;11.75;8.38;;;;;;;30.19;51.45;100138.29;3757364;76;99097;-85
2022/06/30 16:15:55;;;;;;;12.15;9.98;;;;;;;30.09;52.64;100124.20;3772241;77;31699;-85
2022/06/30 16:20:57;;;;;;;15.58;10.18;;;;;;;30.00;53.16;100125.25;3753583;77;99178;-83
2022/06/30 16:25:58;;;;;;;12.05;8.88;;;;;;;29.88;53.35;100118.67;3766621;76;99450;-85
2022/06/30 16:30:59;;;;;;;10.72;9.15;;;;;;;29.80;54.25;100124.75;3765814;77;99309;-86
2022/06/30 16:36:02;;;;;;;10.00;7.85;;;;;;;29.71;54.86;100117.90;3789790;76;98953;-86
2022/06/30 16:41:04;;;;;;;10.13;8.38;;;;;;;29.67;55.02;100121.63;3780046;76;98983;-86
2022/06/30 16:46:05;;;;;;;11.00;9.18;;;;;;;29.58;55.35;100126.16;3767509;77;26474;-86
2022/06/30 16:51:06;;;;;;;12.63;9.60;;;;;;;29.49;56.14;100125.73;3782195;74;98909;-86
2022/06/30 16:56:10;;;;;;;13.32;10.43;;;;;;;29.37;56.59;100128.39;3778297;77;98735;-86
2022/06/30 17:01:10;;;;;;;11.53;9.80;;;;;;;29.31;56.78;100138.20;3772995;76;99879;-86
2022/06/30 17:06:13;;;;;;;13.58;9.93;;;;;;;29.28;57.10;100132.91;3755980;76;99281;-86
2022/06/30 17:11:14;;;;;;;10.70;8.73;;;;;;;29.22;57.51;100127.88;3730633;77;99026;-86
2022/06/30 17:16:20;;;;;;;12.05;9.95;;;;;;;29.15;57.65;100126.17;3745232;77;31680;-86
2022/06/30 17:21:22;;;;;;;11.83;8.90;;;;;;;29.08;58.16;100120.34;3726443;76;98929;-87
2022/06/30 17:26:23;;;;;;;10.80;8.18;;;;;;;29.01;58.42;100121.48;3740236;77;98872;-86
2022/06/30 17:31:27;;;;;;;14.07;10.03;;;;;;;28.93;58.71;100113.32;3732704;77;99035;-86
2022/06/30 17:36:29;;;;;;;15.00;9.38;;;;;;;28.81;59.11;100116.74;3759418;77;99393;-86
2022/06/30 17:41:30;;;;;;;11.50;8.80;;;;;;;28.73;59.58;100114.91;3729132;76;99518;-86
2022/06/30 17:46:32;;;;;;;12.58;10.05;;;;;;;28.62;60.01;100116.28;3731484;77;98980;-84
2022/06/30 17:51:35;;;;;;;12.10;10.13;;;;;;;28.50;60.41;100118.92;3740184;77;99054;-86
2022/06/30 17:56:39;;;;;;;12.37;9.58;;;;;;;28.39;60.94;100127.36;3723534;77;99669;-86
2022/06/30 18:01:40;;;;;;;13.25;9.73;;;;;;;28.26;61.58;100121.31;3738498;76;99153;-86
2022/06/30 18:12:04;;;;;;;12.93;10.32;;;;;;;27.95;62.80;100109.40;3755554;77;99170;-86
2022/06/30 18:17:05;;;;;;;12.45;9.78;;;;;;;27.81;63.44;100113.80;3744229;77;99427;-86
2022/06/30 18:22:09;;;;;;;14.10;9.45;;;;;;;27.66;64.14;100112.48;3763146;77;31605;-86
2022/06/30 18:27:11;;;;;;;13.87;10.73;;;;;;;27.53;64.58;100114.95;3747020;77;99006;-86
2022/06/30 18:32:12;;;;;;;13.45;9.80;;;;;;;27.42;65.15;100112.65;3748928;77;99389;-86
2022/06/30 18:37:13;;;;;;;12.60;10.50;;;;;;;27.26;65.82;100112.63;3746427;77;99011;-86
2022/06/30 18:42:14;;;;;;;13.95;10.58;;;;;;;27.13;66.55;100103.72;3757172;76;99148;-86
2022/06/30 18:47:17;;;;;;;14.10;11.25;;;;;;;26.99;67.21;100098.17;3744111;77;99193;-87
2022/06/30 18:52:18;;;;;;;15.48;10.88;;;;;;;26.86;67.92;100099.19;3757256;77;25897;-86
2022/06/30 18:57:19;;;;;;;14.45;11.90;;;;;;;26.72;68.75;100107.88;3750139;77;99437;-86
2022/06/30 19:02:20;;;;;;;13.95;11.28;;;;;;;26.61;69.47;100111.97;3751676;76;99066;-86
2022/06/30 19:07:21;;;;;;;14.03;10.90;;;;;;;26.49;70.06;100115.86;3763862;77;99279;-87
2022/06/30 19:12:22;;;;;;;14.45;10.15;;;;;;;26.39;70.61;100123.56;3768366;77;99151;-87
2022/06/30 19:17:24;;;;;;;15.40;11.65;;;;;;;26.28;71.44;100129.84;3759246;77;99477;-86
2022/06/30 19:22:25;;;;;;;14.63;10.60;;;;;;;26.17;71.68;100126.06;3774760;77;31663;-87
2022/06/30 19:27:26;;;;;;;15.18;12.58;;;;;;;26.01;71.69;100129.41;3762853;77;99319;-87
2022/06/30 19:32:28;;;;;;;17.57;11.88;;;;;;;25.86;72.44;100135.04;3770593;77;99087;-87
2022/06/30 19:37:29;;;;;;;17.15;12.50;;;;;;;25.78;73.34;100151.43;3766003;77;99151;-87
2022/06/30 19:42:32;;;;;;;15.28;12.33;;;;;;;25.70;73.89;100164.34;3767399;76;99638;-87
2022/06/30 19:47:34;;;;;;;14.58;11.68;;;;;;;25.55;74.24;100156.55;3766681;77;99170;-86
2022/06/30 19:52:36;;;;;;;15.83;12.13;;;;;;;25.49;74.78;100169.73;3778212;77;26840;-87
2022/06/30 19:57:38;;;;;;;16.90;13.20;;;;;;;25.39;75.43;100173.27;3761513;77;99328;-86
2022/06/30 20:13:24;;;;;;;16.80;13.22;;;;;;;25.15;76.68;100161.88;3746591;76;99449;-86
2022/06/30 20:18:24;;;;;;;16.97;12.53;;;;;;;25.05;77.10;100164.00;3739466;77;99253;-87
2022/06/30 20:23:26;;;;;;;16.02;11.85;;;;;;;24.98;77.43;100162.19;3741230;77;99289;-86
2022/06/30 20:28:27;;;;;;;17.77;12.65;;;;;;;24.90;78.05;100168.80;3739415;77;99377;-87
2022/06/30 20:33:28;;;;;;;15.05;13.15;;;;;;;24.81;78.40;100171.70;3740130;77;98999;-86
2022/06/30 20:38:33;;;;;;;16.65;12.37;;;;;;;24.75;78.75;100171.43;3737272;77;99226;-86
2022/06/30 20:43:34;;;;;;;16.57;12.93;;;;;;;24.68;79.15;100159.89;3755270;77;99539;-85
2022/06/30 20:53:55;;;;;;;16.32;12.55;;;;;;;24.53;79.07;100179.36;3736880;77;99160;-86
2022/06/30 20:58:56;;;;;;;17.25;12.80;;;;;;;24.43;79.66;100182.06;3739731;76;99246;-86
2022/06/30 21:03:57;;;;;;;16.80;12.30;;;;;;;24.40;79.95;100196.45;3745969;77;31630;-86
2022/06/30 21:08:59;;;;;;;15.32;11.65;;;;;;;24.35;80.13;100198.52;3781284;77;99272;-86
2022/06/30 21:14:00;;;;;;;16.20;12.20;;;;;;;24.33;80.22;100198.83;3771277;77;99231;-86
2022/06/30 21:19:01;;;;;;;15.38;13.38;;;;;;;24.31;80.56;100208.39;3766873;77;99788;-86
2022/06/30 21:24:03;;;;;;;16.77;13.22;;;;;;;24.26;80.61;100199.19;3700909;78;99657;-86
2022/06/30 21:29:04;;;;;;;15.78;12.95;;;;;;;24.20;80.69;100201.84;3699106;78;99318;-86
2022/06/30 21:34:05;;;;;;;16.15;12.55;;;;;;;24.14;81.64;100192.50;3674314;79;31741;-86
2022/06/30 21:39:06;;;;;;;14.63;12.68;;;;;;;24.14;81.64;100192.50;3660315;79;99438;-87
2022/06/30 21:44:07;;;;;;;16.60;14.05;;;;;;;24.11;82.07;100193.47;3691796;78;99693;-87
2022/06/30 21:49:07;;;;;;;17.07;14.33;;;;;;;24.09;82.42;100192.38;3654404;79;99580;-86
2022/06/30 21:54:09;;;;;;;19.12;14.95;;;;;;;24.03;82.60;100187.25;3663972;79;99604;-86
2022/06/30 21:59:11;;;;;;;19.67;17.57;;;;;;;23.98;82.68;100186.48;3687884;78;99645;-86
2022/06/30 22:04:15;;;;;;;22.55;16.67;;;;;;;23.86;82.93;100187.44;3672383;79;31662;-86
2022/06/30 22:09:15;;;;;;;20.50;15.53;;;;;;;23.71;83.37;100203.39;3653209;79;99465;-86
2022/06/30 22:14:16;;;;;;;18.07;16.00;;;;;;;23.73;83.78;100189.64;3664358;79;99048;-86
2022/06/30 22:19:17;;;;;;;21.93;16.52;;;;;;;23.72;83.91;100169.82;3682172;78;99437;-86
2022/06/30 22:24:18;;;;;;;18.27;14.60;;;;;;;23.66;83.74;100187.16;3670950;78;99169;-86
2022/06/30 22:29:19;;;;;;;17.35;14.95;;;;;;;23.57;84.13;100177.34;3663046;79;99396;-86
2022/06/30 22:34:20;;;;;;;18.20;15.53;;;;;;;23.58;84.49;100188.11;3640104;79;32985;-86
2022/06/30 22:39:22;;;;;;;16.45;14.03;;;;;;;23.56;84.51;100194.84;3692815;78;99276;-86
2022/06/30 22:44:25;;;;;;;15.25;13.22;;;;;;;23.57;84.95;100199.20;3656634;79;99510;-86
2022/06/30 22:49:26;;;;;;;17.37;13.58;;;;;;;23.58;85.19;100184.52;3692206;78;99304;-87
2022/06/30 22:54:28;;;;;;;21.40;16.15;;;;;;;23.55;85.30;100191.85;3693980;78;99168;-85
2022/06/30 22:59:29;;;;;;;18.12;13.48;;;;;;;23.53;85.17;100180.93;3694318;78;99176;-86
2022/06/30 23:04:30;;;;;;;18.92;14.63;;;;;;;23.46;85.40;100166.60;3699089;78;31712;-87
2022/06/30 23:09:31;;;;;;;17.32;15.03;;;;;;;23.42;85.56;100156.76;3671889;78;99329;-86
2022/06/30 23:14:32;;;;;;;15.65;12.82;;;;;;;23.39;85.61;100152.89;3665750;80;98969;-84
2022/06/30 23:19:33;;;;;;;19.10;14.78;;;;;;;23.33;85.02;100158.95;3689924;79;99344;-86
2022/06/30 23:24:34;;;;;;;22.32;16.87;;;;;;;23.27;84.81;100149.61;3669641;79;99620;-86
2022/06/30 23:29:35;;;;;;;19.37;15.15;;;;;;;23.25;84.77;100153.52;3731977;77;99397;-86
2022/06/30 23:34:36;;;;;;;18.62;14.23;;;;;;;23.24;84.51;100152.58;3760427;77;30201;-85
2022/06/30 23:39:38;;;;;;;20.37;17.00;;;;;;;23.23;84.41;100146.81;3752098;77;99289;-85